Time;durP1;ratioP1;P1;durP2;ratioP2;P2;SDS_P1;SDS_P2;PMS_P1;PMS_P2;Temp;Humidity;BMP_temperature;BMP_pressure;BME280_temperature;BME280_humidity;BME280_pressure;Samples;Min_cycle;Max_cycle;Signal;HPM_P1;HPM_P2
2022/09/26 00:01:31;;;;;;;28.27;19.27;;;;;;;10.02;94.24;94130.27;1722374;83;21510;-56
2022/09/26 00:04:01;;;;;;;25.08;19.70;;;;;;;9.99;94.12;94129.79;1733458;82;21112;-56
2022/09/26 00:06:31;;;;;;;32.13;21.00;;;;;;;9.98;94.28;94128.27;1722313;83;20951;-56
2022/09/26 00:08:59;;;;;;;30.60;21.90;;;;;;;9.96;94.18;94123.84;1733406;82;21066;-56
2022/09/26 00:11:30;;;;;;;36.13;23.25;;;;;;;9.89;93.93;94120.00;1722205;83;21031;-57
2022/09/26 00:14:06;;;;;;;49.65;28.12;;;;;;;9.78;93.87;94115.59;1733558;82;21014;-56
2022/09/26 00:16:34;;;;;;;38.48;24.35;;;;;;;9.72;94.27;94103.66;1721618;83;21159;-56
2022/09/26 00:19:03;;;;;;;26.17;19.40;;;;;;;9.73;94.54;94110.09;1733431;82;20955;-57
2022/09/26 00:21:31;;;;;;;26.42;19.25;;;;;;;9.74;94.57;94106.12;1722249;83;20994;-57
2022/09/26 00:24:00;;;;;;;29.55;17.77;;;;;;;9.72;94.34;94103.66;1733132;82;21038;-56
2022/09/26 00:26:29;;;;;;;23.12;15.60;;;;;;;9.72;94.57;94095.43;1722582;83;21011;-56
2022/09/26 00:28:57;;;;;;;19.75;14.83;;;;;;;9.72;94.50;94089.34;1733199;82;21242;-55
2022/09/26 00:31:28;;;;;;;25.15;17.20;;;;;;;9.75;94.56;94075.28;1722162;82;21003;-56
2022/09/26 00:33:57;;;;;;;33.08;21.07;;;;;;;9.75;94.28;94086.27;1733007;82;21097;-56
2022/09/26 00:36:25;;;;;;;30.32;19.77;;;;;;;9.64;94.21;94081.23;1697833;83;20978;-56
2022/09/26 00:38:53;;;;;;;32.45;20.30;;;;;;;9.58;94.36;94086.44;1732621;82;21006;-56
2022/09/26 00:41:22;;;;;;;36.40;23.85;;;;;;;9.52;94.40;94086.87;1686791;84;21832;-57
2022/09/26 00:43:52;;;;;;;27.58;17.90;;;;;;;9.48;94.37;94095.27;1701819;84;21061;-56
2022/09/26 00:46:39;;;;;;;21.65;15.32;;;;;;;9.41;94.23;94083.20;1731229;83;21003;-55
2022/09/26 00:49:30;;;;;;;25.95;18.25;;;;;;;9.37;94.45;94084.55;1701951;84;21538;-56
2022/09/26 00:52:15;;;;;;;25.40;17.17;;;;;;;9.30;94.70;94085.63;1730920;83;21054;-56
2022/09/26 00:54:45;;;;;;;27.13;16.62;;;;;;;9.26;94.87;94085.61;1702057;83;21321;-56
2022/09/26 00:57:26;;;;;;;26.40;17.02;;;;;;;9.20;94.95;94083.30;1730996;83;20994;-57
2022/09/26 01:00:01;;;;;;;27.60;16.52;;;;;;;9.17;95.24;94085.58;1702117;83;20955;-56
2022/09/26 01:02:29;;;;;;;24.67;16.52;;;;;;;9.15;95.41;94083.30;1731208;83;21110;-56
2022/09/26 01:04:58;;;;;;;19.75;15.63;;;;;;;9.17;95.81;94084.20;1701866;84;21014;-56
2022/09/26 01:07:27;;;;;;;24.35;17.75;;;;;;;9.15;95.71;94088.02;1731547;83;21133;-57
2022/09/26 01:09:57;;;;;;;23.20;15.75;;;;;;;9.08;95.74;94086.31;1701886;83;20991;-55
2022/09/26 01:12:26;;;;;;;22.45;15.30;;;;;;;9.06;96.03;94087.37;1730979;82;20966;-57
2022/09/26 01:14:55;;;;;;;20.95;16.35;;;;;;;9.10;96.45;94079.77;1701821;84;21125;-57
2022/09/26 01:17:23;;;;;;;25.70;17.02;;;;;;;9.11;96.13;94076.42;1712350;83;20951;-56
2022/09/26 01:20:17;;;;;;;19.20;14.55;;;;;;;9.07;95.89;94071.70;1683671;84;21289;-55
2022/09/26 01:23:12;;;;;;;19.40;14.50;;;;;;;9.03;95.80;94073.20;1723354;83;20971;-57
2022/09/26 01:26:03;;;;;;;20.37;13.08;;;;;;;8.99;95.85;94069.07;1676582;85;21032;-56
2022/09/26 01:29:01;;;;;;;21.50;15.13;;;;;;;8.97;96.41;94061.91;1688096;85;21018;-56
2022/09/26 01:35:11;;;;;;;24.75;14.10;;;;;;;8.94;96.33;94061.44;1731114;83;21280;-56
2022/09/26 01:38:01;;;;;;;21.45;14.38;;;;;;;9.01;96.69;94057.81;1701908;84;21553;-56
2022/09/26 01:40:45;;;;;;;22.37;15.18;;;;;;;9.04;96.51;94060.27;1729611;82;20947;-56
2022/09/26 01:43:24;;;;;;;19.05;13.65;;;;;;;9.08;96.55;94063.63;1772157;81;20960;-55
2022/09/26 01:46:02;;;;;;;18.82;14.43;;;;;;;9.11;96.08;94062.70;1772232;81;20944;-56
2022/09/26 01:48:40;;;;;;;19.75;13.80;;;;;;;9.05;95.82;94069.39;1749332;81;21996;-57
2022/09/26 01:51:15;;;;;;;15.38;11.50;;;;;;;9.06;95.59;94065.44;1771363;80;20967;-56
2022/09/26 01:53:52;;;;;;;15.55;12.90;;;;;;;9.03;95.42;94066.34;1772135;81;20972;-56
2022/09/26 01:56:23;;;;;;;21.95;14.05;;;;;;;8.98;95.26;94057.94;1772085;81;20983;-56
2022/09/26 01:58:59;;;;;;;18.20;12.93;;;;;;;8.94;95.65;94036.75;1696677;84;21436;-56
2022/09/26 02:01:29;;;;;;;16.93;12.55;;;;;;;8.91;95.54;94041.16;1772114;80;21265;-57
2022/09/26 02:04:00;;;;;;;18.65;12.78;;;;;;;8.88;95.37;94039.95;1696436;84;20974;-56
2022/09/26 02:06:53;;;;;;;16.17;12.20;;;;;;;8.88;95.50;94037.20;1772052;80;20983;-56
2022/09/26 02:09:31;;;;;;;24.10;11.88;;;;;;;8.86;95.22;94049.24;1693684;84;20963;-57
2022/09/26 02:12:00;;;;;;;19.50;12.07;;;;;;;8.82;95.46;94037.62;1772073;81;21006;-56
2022/09/26 02:14:33;;;;;;;15.48;10.98;;;;;;;8.79;95.68;94037.78;1772627;81;21093;-55
2022/09/26 02:17:08;;;;;;;14.10;10.80;;;;;;;8.82;96.01;94036.88;1772306;81;20979;-56
2022/09/26 02:19:45;;;;;;;14.03;11.00;;;;;;;8.84;95.87;94035.81;1772160;81;20959;-56
2022/09/26 02:22:13;;;;;;;17.57;11.85;;;;;;;8.81;95.53;94037.47;1771215;81;20943;-55
2022/09/26 02:24:42;;;;;;;13.45;11.53;;;;;;;8.76;95.34;94033.96;1696400;84;20991;-57
2022/09/26 02:27:12;;;;;;;20.72;13.20;;;;;;;8.74;95.75;94029.54;1772224;81;21978;-56
2022/09/26 02:29:39;;;;;;;15.18;11.75;;;;;;;8.78;96.11;94031.53;1696808;84;21496;-56
2022/09/26 02:32:14;;;;;;;13.45;11.33;;;;;;;8.81;95.96;94022.39;1742074;81;21038;-55
2022/09/26 02:34:44;;;;;;;14.20;10.38;;;;;;;8.85;95.92;94026.37;1772827;81;20943;-56
2022/09/26 02:37:12;;;;;;;16.57;11.63;;;;;;;8.85;95.83;94032.63;1696402;84;21010;-56
2022/09/26 02:39:41;;;;;;;11.83;10.10;;;;;;;8.83;95.45;94025.44;1772346;81;21235;-56
2022/09/26 02:42:37;;;;;;;13.30;10.08;;;;;;;8.80;95.34;94034.58;1771978;80;21054;-55
2022/09/26 02:45:27;;;;;;;11.95;9.88;;;;;;;8.79;95.19;94028.94;1771639;80;20978;-57
2022/09/26 02:48:32;;;;;;;15.55;10.10;;;;;;;8.83;95.67;94041.89;1696483;84;21562;-56
2022/09/26 02:51:09;;;;;;;;;;;;;;;8.90;95.71;94032.03;1751205;82;21030;-56
2022/09/26 02:54:11;;;;;;;15.90;11.75;;;;;;;8.93;95.27;94036.60;1748567;82;21115;-56
2022/09/26 02:56:57;;;;;;;14.78;12.07;;;;;;;8.85;94.76;94034.00;1764342;81;20983;-56
2022/09/26 02:59:49;;;;;;;16.52;13.18;;;;;;;8.71;94.62;94027.70;1772028;81;21438;-56
2022/09/26 03:02:25;;;;;;;18.90;13.48;;;;;;;8.68;94.88;94016.28;1696384;84;21011;-55
2022/09/26 03:05:09;;;;;;;19.37;13.88;;;;;;;8.62;94.74;94015.33;1769061;81;21472;-57
2022/09/26 03:07:47;;;;;;;19.15;12.28;;;;;;;8.63;95.50;94013.36;1772058;81;21085;-56
2022/09/26 03:10:14;;;;;;;16.82;12.30;;;;;;;8.65;95.15;94002.70;1696423;84;21495;-55
2022/09/26 03:12:43;;;;;;;17.92;12.30;;;;;;;8.58;94.78;93987.29;1742171;81;20955;-56
2022/09/26 03:15:13;;;;;;;15.58;11.90;;;;;;;8.53;94.92;93972.81;1772324;81;20960;-57
2022/09/26 03:17:45;;;;;;;13.38;11.97;;;;;;;8.53;94.97;93968.70;1676717;84;20983;-56
2022/09/26 03:20:16;;;;;;;15.23;10.83;;;;;;;8.52;95.08;93967.18;1742340;81;21135;-54
2022/09/26 03:22:44;;;;;;;15.98;10.60;;;;;;;8.54;95.34;93965.34;1742577;81;20990;-55
2022/09/26 03:25:19;;;;;;;15.60;10.82;;;;;;;8.55;95.43;93960.79;1772139;81;21000;-56
2022/09/26 03:27:48;;;;;;;15.50;9.63;;;;;;;8.58;95.71;93962.63;1771812;81;21467;-55
2022/09/26 03:30:16;;;;;;;13.58;9.88;;;;;;;8.66;95.96;93954.25;1772164;81;21081;-56
2022/09/26 03:32:46;;;;;;;18.35;11.00;;;;;;;8.73;95.79;93965.55;1770935;81;21128;-56
2022/09/26 03:35:15;;;;;;;14.50;10.72;;;;;;;8.69;95.40;93960.22;1742109;81;20956;-56
2022/09/26 03:37:44;;;;;;;14.78;11.83;;;;;;;8.64;95.43;93966.91;1772409;81;20931;-56
2022/09/26 03:40:12;;;;;;;18.82;11.38;;;;;;;8.58;95.37;93968.10;1772383;81;20963;-56
2022/09/26 03:42:50;;;;;;;24.87;10.50;;;;;;;8.55;95.67;93968.23;1695046;84;21125;-56
2022/09/26 03:45:18;;;;;;;12.80;10.45;;;;;;;8.57;96.13;93967.95;1772142;81;21220;-56
2022/09/26 03:47:56;;;;;;;17.65;11.35;;;;;;;8.60;96.16;93961.55;1738209;81;21538;-56
2022/09/26 03:50:25;;;;;;;19.60;12.50;;;;;;;8.62;95.94;93963.23;1767655;81;21415;-56
2022/09/26 03:52:53;;;;;;;11.95;9.83;;;;;;;8.64;96.42;93947.09;1772390;81;21008;-55
2022/09/26 03:55:21;;;;;;;12.18;8.95;;;;;;;8.70;96.28;93944.52;1772156;81;21039;-56
2022/09/26 03:57:50;;;;;;;14.95;9.38;;;;;;;8.72;95.90;93943.45;1742517;81;21220;-56
2022/09/26 04:00:26;;;;;;;12.78;10.20;;;;;;;8.75;96.01;93954.28;1771389;81;21452;-56
2022/09/26 04:02:53;;;;;;;17.42;10.95;;;;;;;8.73;95.83;93952.61;1741996;81;20943;-55
2022/09/26 04:05:23;;;;;;;13.72;9.15;;;;;;;8.71;95.87;93945.45;1695410;84;20975;-56
2022/09/26 04:07:50;;;;;;;8.63;7.70;;;;;;;8.72;96.23;93928.38;1772173;81;21109;-56
2022/09/26 04:10:19;;;;;;;9.90;7.40;;;;;;;8.74;96.11;93928.09;1696425;84;21258;-56
2022/09/26 04:12:47;;;;;;;12.50;8.60;;;;;;;8.77;96.31;93921.69;1772788;81;21023;-56
2022/09/26 04:15:15;;;;;;;14.78;10.18;;;;;;;8.79;96.16;93926.10;1772202;81;21423;-56
2022/09/26 04:17:44;;;;;;;18.05;12.10;;;;;;;8.77;96.11;93929.91;1772262;81;20953;-56
2022/09/26 04:20:13;;;;;;;17.55;11.93;;;;;;;8.72;96.12;93931.11;1696580;84;20966;-58
2022/09/26 04:22:41;;;;;;;21.77;11.75;;;;;;;8.70;96.35;93922.59;1741836;81;21412;-56
2022/09/26 04:25:09;;;;;;;15.55;12.07;;;;;;;8.72;96.67;93903.10;1772145;81;20979;-56
2022/09/26 04:27:38;;;;;;;17.67;12.50;;;;;;;8.84;97.22;93909.66;1772155;81;21038;-56
2022/09/26 04:30:08;;;;;;;13.75;11.22;;;;;;;8.91;96.99;93916.98;1696350;84;20959;-56
2022/09/26 04:32:40;;;;;;;16.62;9.55;;;;;;;8.96;96.37;93921.86;1770925;81;21119;-56
2022/09/26 04:35:24;;;;;;;;;;;;;;;8.96;96.17;93925.97;1698997;84;21160;-55
2022/09/26 04:37:51;;;;;;;13.70;9.68;;;;;;;8.98;96.08;93924.90;1725298;83;20228;-55
2022/09/26 04:40:21;;;;;;;14.90;10.25;;;;;;;9.00;96.36;93916.38;1772207;81;20983;-55
2022/09/26 04:43:01;;;;;;;14.68;11.03;;;;;;;9.04;96.04;93925.84;1671865;85;21572;-56
2022/09/26 04:45:26;;;;;;;15.43;10.65;;;;;;;9.06;95.89;93935.74;1665963;84;21046;-55
2022/09/26 04:47:54;;;;;;;13.45;10.05;;;;;;;9.06;95.84;93924.14;1645706;85;21453;-55
2022/09/26 04:50:28;;;;;;;15.63;9.48;;;;;;;9.13;96.05;93918.97;1691065;84;21033;-58
2022/09/26 04:53:06;;;;;;;14.20;10.63;;;;;;;9.20;95.83;93915.31;1673568;85;20973;-56
2022/09/26 04:55:36;;;;;;;17.07;10.90;;;;;;;9.25;95.86;93912.57;1666561;84;21097;-60
2022/09/26 04:58:04;;;;;;;13.45;11.05;;;;;;;9.29;95.76;93919.41;1673787;85;21507;-59
2022/09/26 05:00:32;;;;;;;13.60;9.95;;;;;;;9.34;95.67;93917.44;1691569;84;21324;-60
2022/09/26 05:03:02;;;;;;;13.03;10.28;;;;;;;9.36;95.35;93913.63;1629461;85;21461;-55
2022/09/26 05:05:31;;;;;;;10.58;9.33;;;;;;;9.42;95.27;93920.64;1675926;84;21019;-55
2022/09/26 05:07:59;;;;;;;18.07;11.38;;;;;;;9.47;95.35;93923.51;1662131;84;21070;-57
2022/09/26 05:10:27;;;;;;;21.75;14.53;;;;;;;9.56;95.58;93926.85;1729976;82;21497;-57
2022/09/26 05:12:59;;;;;;;19.42;15.98;;;;;;;9.64;95.29;93923.95;1718784;82;21919;-57
2022/09/26 05:15:27;;;;;;;24.67;20.60;;;;;;;9.66;94.97;93932.49;1733514;82;21017;-57
2022/09/26 05:17:59;;;;;;;24.00;17.12;;;;;;;9.71;95.34;93926.37;1720595;82;21052;-57
2022/09/26 05:20:31;;;;;;;26.73;16.43;;;;;;;9.77;95.01;93932.79;1729786;82;21568;-59
2022/09/26 05:22:58;;;;;;;26.82;19.12;;;;;;;9.80;94.69;93929.11;1720585;82;21852;-59
2022/09/26 05:28:14;;;;;;;24.12;18.02;;;;;;;9.79;94.85;93916.61;1697005;82;21005;-58
2022/09/26 05:30:42;;;;;;;16.62;14.03;;;;;;;9.86;95.15;93918.42;1712280;82;20985;-58
2022/09/26 05:33:11;;;;;;;21.60;15.25;;;;;;;9.96;95.03;93919.16;1729783;82;21069;-59
2022/09/26 05:35:39;;;;;;;25.35;16.42;;;;;;;10.04;94.96;93910.75;1726619;82;21123;-59
2022/09/26 05:38:07;;;;;;;22.40;16.65;;;;;;;10.13;94.85;93918.97;1703452;82;21885;-57
2022/09/26 05:43:24;;;;;;;22.22;14.85;;;;;;;10.35;94.16;93930.48;1722284;82;21040;-58
2022/09/26 05:45:58;;;;;;;28.47;17.77;;;;;;;10.46;93.80;93927.97;1725887;82;21060;-58
2022/09/26 05:48:28;;;;;;;22.98;17.02;;;;;;;10.52;93.26;93927.50;1720454;82;21036;-60
2022/09/26 05:50:56;;;;;;;29.00;17.45;;;;;;;10.54;93.26;93920.92;1713096;82;21156;-59
2022/09/26 05:53:24;;;;;;;34.08;17.98;;;;;;;10.64;93.24;93921.00;1688541;82;21006;-58
2022/09/26 05:55:52;;;;;;;24.35;18.00;;;;;;;10.75;93.17;93918.66;1677754;83;21060;-62
2022/09/26 05:58:32;;;;;;;18.50;13.60;;;;;;;10.85;92.83;93919.35;1697238;82;21006;-59
2022/09/26 06:01:19;;;;;;;17.55;14.58;;;;;;;10.90;92.93;93922.23;1703433;82;21060;-56
2022/09/26 06:03:46;;;;;;;18.15;13.88;;;;;;;11.04;92.94;93916.02;1658575;83;21150;-60
2022/09/26 06:06:17;;;;;;;26.45;19.32;;;;;;;11.15;92.69;93910.72;1705981;82;21049;-61
2022/09/26 06:08:46;;;;;;;25.02;15.55;;;;;;;11.20;92.37;93917.58;1706581;82;21212;-59
2022/09/26 06:11:29;;;;;;;30.23;17.48;;;;;;;11.27;92.22;93909.72;1702986;82;21048;-59
2022/09/26 06:13:54;;;;;;;26.27;16.23;;;;;;;11.41;92.26;93906.24;1707978;82;21016;-59
2022/09/26 06:16:22;;;;;;;28.90;17.48;;;;;;;11.58;91.90;93896.33;1694841;82;22213;-59
2022/09/26 06:18:51;;;;;;;18.37;11.93;;;;;;;11.75;91.17;93902.12;1706402;82;21010;-59
2022/09/26 06:21:20;;;;;;;18.67;11.10;;;;;;;11.86;89.75;93903.06;1718567;81;21073;-59
2022/09/26 06:23:50;;;;;;;18.85;11.63;;;;;;;11.88;88.53;93901.97;1716987;82;21611;-60
2022/09/26 06:26:21;;;;;;;22.58;11.63;;;;;;;11.93;88.00;93890.27;1704256;82;21059;-59
2022/09/26 06:28:58;;;;;;;22.62;11.40;;;;;;;12.03;87.85;93893.08;1691584;83;21133;-59
2022/09/26 06:31:29;;;;;;;15.80;10.82;;;;;;;12.15;87.55;93887.90;1703649;82;21099;-61
2022/09/26 06:34:12;;;;;;;19.92;11.78;;;;;;;12.31;87.16;93890.77;1701166;82;21053;-59
2022/09/26 06:36:46;;;;;;;18.17;9.30;;;;;;;12.44;86.77;93882.94;1696198;82;21092;-57
2022/09/26 06:39:14;;;;;;;21.40;9.33;;;;;;;12.53;86.10;93878.67;1677662;83;21059;-60
2022/09/26 06:41:42;;;;;;;26.48;11.80;;;;;;;12.62;85.78;93882.06;1702230;83;21484;-59
2022/09/26 06:44:14;;;;;;;24.40;10.87;;;;;;;12.70;85.00;93885.95;1725024;82;21039;-59
2022/09/26 06:46:49;;;;;;;18.42;10.98;;;;;;;12.75;84.77;93883.25;1722319;81;21160;-61
2022/09/26 06:49:18;;;;;;;30.15;12.23;;;;;;;12.84;84.06;93892.02;1705688;81;21014;-62
2022/09/26 06:51:48;;;;;;;14.65;9.35;;;;;;;12.92;83.25;93897.30;1714378;81;21042;-57
2022/09/26 06:54:17;;;;;;;12.88;10.75;;;;;;;13.02;82.55;93894.55;1716260;82;21139;-59
2022/09/26 06:56:45;;;;;;;25.60;12.93;;;;;;;13.03;82.13;93893.30;1719561;82;21023;-59
2022/09/26 06:59:15;;;;;;;17.02;12.20;;;;;;;13.03;82.05;93890.55;1715277;81;21070;-57
2022/09/26 07:01:47;;;;;;;15.53;11.97;;;;;;;13.05;81.87;93899.12;1712068;81;20999;-59
2022/09/26 07:04:34;;;;;;;37.40;15.35;;;;;;;13.12;81.64;93895.94;1762884;81;21025;-56
2022/09/26 07:07:07;;;;;;;45.58;16.82;;;;;;;13.18;81.00;93896.76;1720569;81;21319;-55
2022/09/26 07:09:35;;;;;;;50.00;16.20;;;;;;;13.15;80.96;93892.20;1709333;81;21046;-55
2022/09/26 07:12:06;;;;;;;40.65;13.93;;;;;;;13.19;81.20;93892.75;1716941;81;21073;-53
2022/09/26 07:14:36;;;;;;;46.00;23.15;;;;;;;13.27;81.47;93899.39;1722025;81;21322;-53
2022/09/26 07:17:05;;;;;;;42.15;23.25;;;;;;;13.31;81.21;93903.47;1713359;82;21090;-53
2022/09/26 07:19:45;;;;;;;39.00;27.58;;;;;;;13.31;80.92;93895.80;1717421;82;21957;-56
2022/09/26 07:22:32;;;;;;;43.35;22.37;;;;;;;13.27;81.33;93901.52;1716457;81;20971;-51
2022/09/26 07:24:59;;;;;;;40.65;20.10;;;;;;;13.24;81.51;93898.98;1728406;81;21093;-54
2022/09/26 07:27:27;;;;;;;31.93;18.15;;;;;;;13.34;81.35;93894.82;1689580;83;21076;-55
2022/09/26 07:29:57;;;;;;;29.25;16.82;;;;;;;13.39;80.42;93896.27;1674476;83;21092;-51
2022/09/26 07:32:26;;;;;;;36.63;15.98;;;;;;;13.36;79.78;93886.20;1619173;84;21699;-52
2022/09/26 07:35:05;;;;;;;27.50;15.75;;;;;;;13.26;79.77;93886.83;1666472;83;21034;-56
2022/09/26 07:37:35;;;;;;;23.12;16.00;;;;;;;13.20;79.97;93880.45;1677025;83;21155;-54
2022/09/26 07:40:04;;;;;;;22.27;15.08;;;;;;;13.24;80.02;93879.02;1687274;83;21104;-56
2022/09/26 07:42:32;;;;;;;31.65;14.47;;;;;;;13.33;79.59;93873.97;1683845;83;21146;-54
2022/09/26 07:44:59;;;;;;;26.82;13.53;;;;;;;13.47;79.37;93880.77;1681868;83;21385;-52
2022/09/26 07:50:16;;;;;;;19.10;13.93;;;;;;;13.74;78.28;93869.87;1655910;83;20981;-56
2022/09/26 07:52:47;;;;;;;26.15;14.78;;;;;;;13.79;78.20;93871.31;1679703;83;21102;-54
2022/09/26 07:55:27;;;;;;;31.45;15.75;;;;;;;13.75;77.31;93875.53;1666251;83;21024;-56
2022/09/26 07:58:13;;;;;;;29.00;14.73;;;;;;;13.71;77.49;93868.08;1661417;82;21256;-53
2022/09/26 08:00:49;;;;;;;25.37;15.32;;;;;;;13.75;77.96;93868.01;1661037;84;21499;-53
2022/09/26 08:03:28;;;;;;;26.80;16.17;;;;;;;13.89;77.93;93871.90;1698088;83;21392;-52
2022/09/26 08:06:00;;;;;;;24.60;14.15;;;;;;;13.99;77.67;93870.49;1692722;83;21040;-53
2022/09/26 08:08:30;;;;;;;42.93;18.02;;;;;;;14.05;76.71;93882.36;1684248;83;21106;-54
2022/09/26 08:11:01;;;;;;;29.90;16.85;;;;;;;14.07;76.72;93871.56;1688676;82;21103;-51
2022/09/26 08:13:48;;;;;;;26.52;16.17;;;;;;;14.11;76.76;93874.24;1687904;84;21560;-56
2022/09/26 08:16:24;;;;;;;30.13;17.97;;;;;;;14.19;75.82;93881.50;1691752;84;21568;-56
2022/09/26 08:18:54;;;;;;;28.62;15.95;;;;;;;14.13;75.63;93882.03;1677662;82;21537;-55
2022/09/26 08:21:24;;;;;;;26.60;16.55;;;;;;;13.99;75.72;93876.77;1682396;82;21050;-54
2022/09/26 08:23:53;;;;;;;41.37;21.37;;;;;;;14.01;76.10;93881.18;1688955;84;21239;-56
2022/09/26 08:26:39;;;;;;;31.52;16.85;;;;;;;14.05;75.79;93871.29;1691265;83;21605;-56
2022/09/26 08:29:11;;;;;;;33.60;19.80;;;;;;;14.06;75.99;93868.05;1689569;83;21033;-55
2022/09/26 08:31:39;;;;;;;36.38;21.82;;;;;;;14.01;76.02;93865.97;1691553;83;21020;-53
2022/09/26 08:34:09;;;;;;;27.48;18.25;;;;;;;14.00;76.60;93859.56;1693198;83;21041;-54
2022/09/26 08:36:38;;;;;;;40.85;24.75;;;;;;;13.99;77.06;93860.17;1688734;83;21235;-54
2022/09/26 08:39:08;;;;;;;33.85;21.40;;;;;;;13.95;77.14;93854.72;1684734;83;21062;-62
2022/09/26 08:42:08;;;;;;;35.13;21.90;;;;;;;13.85;77.62;93853.39;1713885;82;21064;-58
2022/09/26 08:48:32;;;;;;;47.85;32.40;;;;;;;13.73;78.01;93854.53;1675008;83;21072;-58
2022/09/26 08:51:31;;;;;;;34.15;24.60;;;;;;;13.72;78.37;93854.40;1666238;83;21287;-56
2022/09/26 08:54:17;;;;;;;41.05;25.65;;;;;;;13.72;78.33;93855.78;1686735;84;21043;-56
2022/09/26 08:56:49;;;;;;;35.58;22.67;;;;;;;13.75;78.56;93851.42;1670554;85;21177;-57
2022/09/26 08:59:31;;;;;;;30.65;22.90;;;;;;;13.83;78.85;93840.69;1682065;84;21018;-60
2022/09/26 09:02:01;;;;;;;30.43;20.77;;;;;;;13.84;78.91;93831.89;1690103;83;21033;-57
2022/09/26 09:04:38;;;;;;;51.18;32.83;;;;;;;13.91;78.89;93826.55;1687205;83;21483;-57
2022/09/26 09:07:17;;;;;;;42.93;23.25;;;;;;;14.03;78.71;93821.25;1672883;83;21535;-57
2022/09/26 09:09:46;;;;;;;43.80;25.92;;;;;;;14.08;78.64;93819.14;1675917;84;21085;-58
2022/09/26 09:12:46;;;;;;;45.17;28.00;;;;;;;14.11;78.41;93820.91;1677574;83;20978;-58
2022/09/26 09:15:51;;;;;;;34.67;22.62;;;;;;;14.25;78.37;93813.13;1631953;83;21005;-55
2022/09/26 09:18:55;;;;;;;26.93;16.65;;;;;;;14.48;79.29;93806.61;1677846;83;21238;-57
2022/09/26 09:22:08;;;;;;;35.63;18.32;;;;;;;14.71;78.90;93804.11;1600528;87;21569;-57
2022/09/26 09:25:02;;;;;;;24.15;13.45;;;;;;;14.96;78.09;93802.47;1706237;81;21041;-59
2022/09/26 09:27:43;;;;;;;23.45;13.18;;;;;;;15.10;77.05;93806.42;1736272;80;21056;-58
2022/09/26 09:30:22;;;;;;;18.95;12.70;;;;;;;15.06;76.62;93801.75;1733674;81;21033;-57
2022/09/26 09:33:05;;;;;;;21.35;13.50;;;;;;;15.02;76.61;93808.13;1741936;80;21206;-56
2022/09/26 09:35:55;;;;;;;22.85;14.58;;;;;;;14.98;75.85;93806.88;1677565;82;21126;-59
2022/09/26 09:38:32;;;;;;;17.42;11.73;;;;;;;14.96;75.31;93812.16;1685374;82;21465;-59
2022/09/26 09:41:29;;;;;;;16.62;11.70;;;;;;;14.95;74.37;93821.09;1711992;82;21090;-55
2022/09/26 09:43:59;;;;;;;17.25;11.63;;;;;;;14.95;74.14;93812.00;1716985;80;21876;-58
2022/09/26 09:46:29;;;;;;;19.40;13.40;;;;;;;14.90;74.14;93803.83;1644873;85;22642;-56
2022/09/26 09:49:20;;;;;;;15.98;11.63;;;;;;;14.87;74.44;93796.52;1711713;82;20982;-58
2022/09/26 09:52:11;;;;;;;23.05;15.60;;;;;;;14.90;74.79;93807.20;1702354;82;21038;-59
2022/09/26 09:55:15;;;;;;;25.62;15.80;;;;;;;14.90;74.60;93801.67;1662675;82;21047;-58
2022/09/26 09:58:14;;;;;;;14.47;11.57;;;;;;;14.88;75.43;93804.18;1673513;82;21099;-58
2022/09/26 10:01:02;;;;;;;16.30;9.38;;;;;;;14.87;75.79;93803.44;1681539;82;21139;-59
2022/09/26 10:03:46;;;;;;;18.82;14.15;;;;;;;14.91;76.29;93805.34;1686550;84;20946;-59
2022/09/26 10:06:13;;;;;;;13.55;10.45;;;;;;;14.95;76.56;93805.85;1718900;82;22525;-60
2022/09/26 10:08:43;;;;;;;20.20;13.48;;;;;;;14.99;77.10;93796.67;1726088;80;21045;-57
2022/09/26 10:11:40;;;;;;;17.67;14.13;;;;;;;15.04;77.49;93794.54;1729716;80;21104;-58
2022/09/26 10:14:35;;;;;;;23.57;18.42;;;;;;;15.08;78.45;93790.92;1714409;82;21098;-58
2022/09/26 10:17:14;;;;;;;27.22;21.55;;;;;;;15.08;78.78;93790.92;1709867;83;21041;-57
2022/09/26 10:19:43;;;;;;;;;;;;;;;15.07;78.96;93788.03;1722550;80;21078;-56
2022/09/26 10:22:36;;;;;;;24.87;16.23;;;;;;;15.06;79.16;93787.90;1764148;80;20644;-57
2022/09/26 10:25:07;;;;;;;25.92;18.23;;;;;;;15.11;79.07;93787.16;1688855;82;21033;-57
2022/09/26 10:27:38;;;;;;;27.85;18.30;;;;;;;15.23;79.00;93793.48;1739556;82;21097;-58
2022/09/26 10:30:19;;;;;;;27.22;17.90;;;;;;;15.31;78.33;93795.30;1661619;85;21146;-57
2022/09/26 10:33:02;;;;;;;25.77;16.20;;;;;;;15.27;78.65;93794.77;1721474;80;21019;-61
2022/09/26 10:35:42;;;;;;;19.35;14.70;;;;;;;15.26;79.05;93796.02;1719005;82;21682;-62
2022/09/26 10:38:27;;;;;;;19.05;15.00;;;;;;;15.32;78.72;93791.27;1728173;80;21592;-57
2022/09/26 10:41:05;;;;;;;19.73;15.32;;;;;;;15.32;78.99;93789.88;1731557;80;21158;-58
2022/09/26 10:43:39;;;;;;;22.10;16.67;;;;;;;15.25;79.25;93788.97;1723811;81;21044;-59
2022/09/26 10:46:14;;;;;;;22.20;16.07;;;;;;;15.24;79.64;93781.91;1741392;80;21010;-59
2022/09/26 10:48:53;;;;;;;20.50;15.72;;;;;;;15.35;80.19;93776.41;1745461;81;21529;-58
2022/09/26 10:51:43;;;;;;;23.85;16.20;;;;;;;15.42;81.10;93780.09;1719425;81;21060;-57
2022/09/26 10:54:18;;;;;;;23.62;14.53;;;;;;;15.50;80.96;93781.09;1748575;81;21248;-58
2022/09/26 10:56:49;;;;;;;19.10;13.90;;;;;;;15.57;80.65;93777.08;1753884;81;21009;-56
2022/09/26 10:59:18;;;;;;;18.92;11.78;;;;;;;15.57;80.62;93776.44;1663096;84;21072;-58
2022/09/26 11:01:50;;;;;;;15.65;12.75;;;;;;;15.63;80.09;93775.06;1680532;83;21042;-59
2022/09/26 11:07:29;;;;;;;14.40;10.98;;;;;;;15.55;79.54;93767.87;1633977;84;21377;-58
2022/09/26 11:10:26;;;;;;;13.58;9.75;;;;;;;15.48;79.66;93771.77;1672043;83;21085;-58
2022/09/26 11:13:25;;;;;;;11.73;9.78;;;;;;;15.43;79.72;93770.52;1694461;83;21541;-57
2022/09/26 11:16:12;;;;;;;18.73;11.85;;;;;;;15.46;79.57;93773.66;1691826;83;21641;-57
2022/09/26 11:18:58;;;;;;;20.30;12.95;;;;;;;15.45;79.31;93783.86;1677240;83;21053;-56
2022/09/26 11:22:06;;;;;;;17.77;13.90;;;;;;;15.37;79.05;93784.97;1685423;83;21231;-57
2022/09/26 11:24:51;;;;;;;20.72;14.13;;;;;;;15.30;79.47;93786.09;1652639;84;20974;-58
2022/09/26 11:28:00;;;;;;;17.57;12.10;;;;;;;15.25;80.43;93786.20;1681993;83;21068;-59
2022/09/26 11:30:29;;;;;;;22.10;14.68;;;;;;;15.28;80.76;93772.72;1678284;83;21337;-58
2022/09/26 11:33:04;;;;;;;24.43;16.67;;;;;;;15.39;81.22;93760.92;1680217;84;21543;-58
2022/09/26 11:36:16;;;;;;;36.05;25.37;;;;;;;15.50;81.70;93745.06;1595240;87;21168;-56
2022/09/26 11:38:56;;;;;;;40.28;29.12;;;;;;;15.61;81.84;93754.79;1692405;83;21065;-57
2022/09/26 11:41:47;;;;;;;34.75;21.80;;;;;;;15.63;82.10;93758.43;1678509;84;21427;-56
2022/09/26 11:44:41;;;;;;;37.70;25.60;;;;;;;15.65;82.63;93746.97;1675329;83;21090;-55
2022/09/26 11:47:59;;;;;;;31.62;22.73;;;;;;;15.66;82.79;93733.23;1687282;83;21071;-56
2022/09/26 11:50:59;;;;;;;34.90;24.40;;;;;;;15.60;83.08;93744.95;1655867;84;21841;-58
2022/09/26 11:54:05;;;;;;;24.30;17.77;;;;;;;15.63;83.54;93750.87;1665756;84;21061;-57
2022/09/26 11:56:58;;;;;;;30.57;18.90;;;;;;;15.64;82.99;93730.83;1650321;85;21142;-58
2022/09/26 11:59:44;;;;;;;36.85;25.30;;;;;;;15.71;82.81;93714.44;1664899;85;21693;-64
2022/09/26 12:02:46;;;;;;;26.00;20.40;;;;;;;15.86;82.47;93716.33;1673471;84;21049;-62
2022/09/26 12:06:08;;;;;;;31.00;21.37;;;;;;;15.93;81.91;93708.88;1628693;86;22228;-60
2022/09/26 12:09:03;;;;;;;21.65;16.02;;;;;;;15.97;81.91;93712.17;1720289;81;21065;-59
2022/09/26 12:11:41;;;;;;;21.95;16.80;;;;;;;16.04;82.02;93696.39;1627918;87;21087;-59
2022/09/26 12:14:16;;;;;;;23.10;16.80;;;;;;;15.99;82.24;93717.97;1721350;81;20991;-58
2022/09/26 12:17:19;;;;;;;26.52;18.30;;;;;;;15.93;82.50;93725.52;1731323;81;21061;-59
2022/09/26 12:19:57;;;;;;;22.93;14.07;;;;;;;15.84;82.97;93706.37;1713880;81;21131;-58
2022/09/26 12:22:41;;;;;;;11.25;8.45;;;;;;;15.89;82.98;93698.67;1684601;82;20994;-59
2022/09/26 12:25:31;;;;;;;16.57;11.85;;;;;;;15.89;82.55;93688.97;1714148;81;21053;-58